Skip to main content.
 TIME   TEMPERATURE   WINDSPEED   DIRECTION   HUMIDITY   BAROMETER   RAINFALL 
9:30 26.0°C (78.8°F) 0.0 kmh (0.0 mph) S 65% 1016.3hPa (30.01 inHg) 0.0mm (0.00 in.)
8:30 24.1°C (75.4 °F) 0.0 kmh (0.0 mph) SSE 77% 1016.1hPa (30.01 inHg) 0.0mm (0.00 in.)
7:30 20.4°C (68.7 °F) 0.0 kmh (0.0 mph) SSW 88% 1015.6hPa (29.99 inHg) 0.0mm (0.00 in.)
6:30 20.4°C (68.7 °F) 0.0 kmh (0.0 mph) SSW 93% 1015.7hPa (29.99 inHg) 0.0mm (0.00 in.)
5:30 20.4°C (68.7 °F) 0.0 kmh (0.0 mph) SSW 93% 1014.9hPa (29.97 inHg) 0.0mm (0.00 in.)
4:30 20.5°C (68.9 °F) 0.0 kmh (0.0 mph) SSW 91% 1015.3hPa (29.98 inHg) 0.0mm (0.00 in.)
3:30 20.5°C (68.9 °F) 0.0 kmh (0.0 mph) SSW 89% 1015.4hPa (29.98 inHg) 0.0mm (0.00 in.)
2:30 21.0°C (69.8 °F) 0.0 kmh (0.0 mph) SSW 86% 1015.4hPa (29.98 inHg) 0.0mm (0.00 in.)
1:30 21.2°C (70.2 °F) 0.0 kmh (0.0 mph) SSW 86% 1015.5hPa (29.99 inHg) 0.0mm (0.00 in.)
12:30 21.3°C (70.3 °F) 0.0 kmh (0.0 mph) SSW 88% 1015.7hPa (29.99 inHg) 0.0mm (0.00 in.)
11:30 21.7°C (71.1 °F) 0.0 kmh (0.0 mph) SSW 78% 1015.6hPa (29.99 inHg) 0.0mm (0.00 in.)
10:30 22.2°C (72.0 °F) 0.0 kmh (0.0 mph) SSW 78% 1015.5hPa (29.99 inHg) 0.0mm (0.00 in.)
9:25 22.8°C (73.0 °F) 0.0 kmh (0.0 mph) N 73% 1015.3hPa (29.98 inHg) 0.0mm (0.00 in.)
8:25 23.4°C (74.1 °F) 5.6 kmh (3.5 mph) N 64% 1014.9hPa (29.97 inHg) 0.0mm (0.00 in.)
7:25 24.3°C (75.7 °F) 7.4 kmh (4.6 mph) N 58% 1014.9hPa (29.97 inHg) 0.0mm (0.00 in.)
6:25 26.2°C (79.2 °F) 7.4 kmh (4.6 mph) N 56% 1014.7hPa (29.96 inHg) 0.0mm (0.00 in.)
5:25 27.1°C (80.8 °F) 5.6 kmh (3.5 mph) N 59% 1015.2hPa (29.98 inHg) 0.0mm (0.00 in.)
4:25 27.7°C (81.9 °F) 5.6 kmh (3.5 mph) N 59% 1015.5hPa (29.99 inHg) 0.0mm (0.00 in.)
3:25 26.8°C (80.2 °F) 5.6 kmh (3.5 mph) N 57% 1015.8hPa (30.00 inHg) 0.0mm (0.00 in.)
2:25 27.3°C (81.1 °F) 5.6 kmh (3.5 mph) N 64% 1016.6hPa (30.02 inHg) 0.0mm (0.00 in.)
1:25 25.6°C (78.1 °F) 1.9 kmh (1.2 mph) N 64% 1017.1hPa (30.03 inHg) 0.0mm (0.00 in.)
12:25 26.4°C (79.5 °F) 5.6 kmh (3.5 mph) N 57% 1017.7hPa (30.05 inHg) 0.0mm (0.00 in.)
11:25 27.1°C (80.8 °F) 3.7 kmh (2.3 mph) N 51% 1017.7hPa (30.05 inHg) 0.0mm (0.00 in.)
10:25 27.3°C (81.1 °F) 11.1 kmh (6.9 mph) N 53% 1017.5hPa (30.05 inHg) 0.0mm (0.00 in.)